createdAt,value
2022-09-30T00:01:37.540Z,100986.31
2022-09-30T00:04:04.634Z,100979.28
2022-09-30T00:06:34.278Z,100979.22
2022-09-30T00:09:02.355Z,100973.06
2022-09-30T00:11:31.247Z,100947.03
2022-09-30T00:13:59.224Z,100975.63
2022-09-30T00:16:29.337Z,100978.13
2022-09-30T00:18:57.858Z,100972.91
2022-09-30T00:21:25.420Z,100975.47
2022-09-30T00:23:52.397Z,100963.47
2022-09-30T00:26:22.615Z,100988.56
2022-09-30T00:28:59.023Z,100985.84
2022-09-30T00:31:29.689Z,100985.78
2022-09-30T00:34:10.347Z,100987.50
2022-09-30T00:36:43.949Z,100996.06
2022-09-30T00:39:22.490Z,100995.91
2022-09-30T00:41:52.673Z,100999.31
2022-09-30T00:44:45.216Z,101002.72
2022-09-30T00:47:50.490Z,101010.50
2022-09-30T00:50:45.517Z,101008.56
2022-09-30T00:53:23.283Z,101001.47
2022-09-30T00:56:00.867Z,101005.78
2022-09-30T00:58:46.144Z,100994.34
2022-09-30T01:01:13.012Z,101003.84
2022-09-30T01:03:50.242Z,101002.84
2022-09-30T01:06:19.492Z,101000.22
2022-09-30T01:08:46.856Z,100977.91
2022-09-30T01:11:14.767Z,101015.91
2022-09-30T01:13:45.623Z,100999.31
2022-09-30T01:16:19.628Z,101011.50
2022-09-30T01:19:14.956Z,101018.34
2022-09-30T01:21:58.712Z,101004.41
2022-09-30T01:24:40.514Z,101012.22
2022-09-30T01:27:33.958Z,101025.13
2022-09-30T01:30:03.537Z,101029.41
2022-09-30T01:33:09.094Z,101027.63
2022-09-30T01:36:21.001Z,101025.88
2022-09-30T01:39:06.961Z,101020.69
2022-09-30T01:42:01.491Z,101040.78
2022-09-30T01:44:46.144Z,101035.63
2022-09-30T01:47:25.870Z,101027.66
2022-09-30T01:50:17.288Z,101037.19
2022-09-30T01:52:43.872Z,101031.03
2022-09-30T01:55:13.469Z,101033.69
2022-09-30T01:57:53.171Z,101022.41
2022-09-30T02:00:21.249Z,101022.44
2022-09-30T02:02:58.746Z,101020.00
2022-09-30T02:05:41.875Z,101028.66
2022-09-30T02:08:18.432Z,101027.84
2022-09-30T02:10:53.251Z,101039.34
2022-09-30T02:13:30.591Z,101032.34
2022-09-30T02:16:12.899Z,101036.78
2022-09-30T02:18:45.508Z,101041.22
2022-09-30T02:21:18.650Z,101050.06
2022-09-30T02:23:47.736Z,101020.59
2022-09-30T02:26:23.405Z,101047.47
2022-09-30T02:28:57.580Z,101045.69
2022-09-30T02:31:27.481Z,101054.44
2022-09-30T02:34:00.855Z,101054.56
2022-09-30T02:36:38.475Z,101051.91
2022-09-30T02:39:14.564Z,101059.78
2022-09-30T02:41:44.835Z,101055.41
2022-09-30T02:44:12.208Z,101041.66
2022-09-30T02:46:54.934Z,101025.09
2022-09-30T02:49:38.230Z,101055.44
2022-09-30T02:52:07.808Z,101058.91
2022-09-30T02:54:53.720Z,101052.72
2022-09-30T02:57:29.689Z,101048.38
2022-09-30T02:59:56.452Z,101049.16
2022-09-30T03:02:23.406Z,101058.69
2022-09-30T03:04:51.209Z,101049.13
2022-09-30T03:07:18.682Z,101050.75
2022-09-30T03:09:45.552Z,101051.59
2022-09-30T03:12:30.712Z,101055.03
2022-09-30T03:15:12.168Z,101060.13
2022-09-30T03:18:24.207Z,101047.69
2022-09-30T03:20:50.732Z,101054.66
2022-09-30T03:23:44.730Z,101061.56
2022-09-30T03:26:20.329Z,101059.75
2022-09-30T03:29:08.725Z,101065.94
2022-09-30T03:32:10.352Z,101074.72
2022-09-30T03:35:00.436Z,101070.28
2022-09-30T03:37:30.302Z,101068.59
2022-09-30T03:40:19.986Z,101072.81
2022-09-30T03:42:57.270Z,101063.31
2022-09-30T03:45:33.599Z,101079.88
2022-09-30T03:48:05.984Z,101077.00
2022-09-30T03:50:35.691Z,101069.09
2022-09-30T03:53:03.423Z,101077.66
2022-09-30T03:55:31.675Z,101081.00
2022-09-30T03:57:58.558Z,101080.75
2022-09-30T04:00:25.360Z,101086.59
2022-09-30T04:02:57.071Z,101068.13
2022-09-30T04:05:24.415Z,101071.53
2022-09-30T04:07:50.968Z,101071.06
2022-09-30T04:10:17.540Z,101083.00
2022-09-30T04:12:44.816Z,101066.22
2022-09-30T04:15:11.421Z,101084.31
2022-09-30T04:17:38.096Z,101090.44
2022-09-30T04:20:05.241Z,101084.47
2022-09-30T04:22:31.808Z,101086.41
2022-09-30T04:24:58.371Z,101091.53
2022-09-30T04:27:25.054Z,101094.97
2022-09-30T04:29:51.835Z,101080.94
2022-09-30T04:32:18.500Z,101086.19
2022-09-30T04:34:45.215Z,101094.84
2022-09-30T04:37:11.814Z,101095.53
2022-09-30T04:39:38.422Z,101099.25
2022-09-30T04:42:05.056Z,101105.53
2022-09-30T04:44:31.749Z,101109.59
2022-09-30T04:46:58.540Z,101121.38
2022-09-30T04:49:25.849Z,101120.78
2022-09-30T04:51:52.486Z,101131.22
2022-09-30T04:54:19.393Z,101133.72
2022-09-30T04:56:48.281Z,101139.13
2022-09-30T04:59:14.904Z,101134.16
2022-09-30T05:01:43.536Z,101134.06
2022-09-30T05:04:12.332Z,101148.84
2022-09-30T05:06:41.765Z,101140.91
2022-09-30T05:09:08.429Z,101127.72
2022-09-30T05:11:38.246Z,101140.59
2022-09-30T05:14:08.911Z,101154.56
2022-09-30T05:16:35.665Z,101151.69
2022-09-30T05:19:02.914Z,101148.88
2022-09-30T05:21:30.228Z,101146.34
2022-09-30T05:23:57.064Z,101146.00
2022-09-30T05:26:23.706Z,101109.16
2022-09-30T05:28:50.999Z,101160.44
2022-09-30T05:31:17.702Z,101156.63
2022-09-30T05:33:46.927Z,101162.53
2022-09-30T05:36:16.292Z,101151.63
2022-09-30T05:38:42.933Z,101169.28
2022-09-30T05:41:11.953Z,101170.06
2022-09-30T05:43:45.252Z,101169.72
2022-09-30T05:46:11.878Z,101171.31
2022-09-30T05:48:38.542Z,101158.25
2022-09-30T05:51:05.603Z,101172.31
2022-09-30T05:54:01.424Z,101172.41
2022-09-30T05:56:28.008Z,101173.31
2022-09-30T05:58:54.608Z,101180.09
2022-09-30T06:01:21.369Z,101171.19
2022-09-30T06:03:48.263Z,101170.28
2022-09-30T06:06:15.692Z,101182.34
2022-09-30T06:08:43.849Z,101184.59
2022-09-30T06:11:13.081Z,101188.19
2022-09-30T06:13:41.084Z,101176.97
2022-09-30T06:16:09.370Z,101167.19
2022-09-30T06:18:36.550Z,101193.63
2022-09-30T06:21:04.897Z,101163.72
2022-09-30T06:23:32.445Z,101177.59
2022-09-30T06:26:00.243Z,101178.50
2022-09-30T06:28:27.356Z,101132.16
2022-09-30T06:30:55.951Z,101177.75
2022-09-30T06:33:22.689Z,101181.47
2022-09-30T06:35:50.575Z,101179.03
2022-09-30T06:38:17.351Z,101184.22
2022-09-30T06:40:44.985Z,101182.59
2022-09-30T06:43:12.030Z,101187.41
2022-09-30T06:45:38.951Z,101185.50
2022-09-30T06:48:08.393Z,101191.75
2022-09-30T06:50:35.455Z,101187.81
2022-09-30T06:53:06.363Z,101183.25
2022-09-30T06:55:39.300Z,101190.19
2022-09-30T06:58:09.802Z,101189.75
2022-09-30T07:00:36.717Z,101182.25
2022-09-30T07:03:13.312Z,101192.09
2022-09-30T07:05:39.950Z,101194.78
2022-09-30T07:08:08.124Z,101188.72
2022-09-30T07:10:34.701Z,101180.94
2022-09-30T07:13:03.117Z,101197.72
2022-09-30T07:15:29.749Z,101191.22
2022-09-30T07:17:56.842Z,101181.97
2022-09-30T07:20:29.113Z,101189.94
2022-09-30T07:22:55.717Z,101182.31
2022-09-30T07:25:22.289Z,101167.47
2022-09-30T07:27:50.160Z,101176.53
2022-09-30T07:30:25.955Z,101170.69
2022-09-30T07:32:53.737Z,101181.13
2022-09-30T07:35:20.981Z,101184.88
2022-09-30T07:37:47.805Z,101190.25
2022-09-30T07:40:15.335Z,101182.72
2022-09-30T07:42:46.006Z,101188.56
2022-09-30T07:45:16.077Z,101187.84
2022-09-30T07:47:43.554Z,101181.75
2022-09-30T07:50:10.925Z,101181.06
2022-09-30T07:52:37.916Z,101185.28
2022-09-30T07:55:04.982Z,101182.66
2022-09-30T07:57:31.671Z,101187.25
2022-09-30T07:59:58.613Z,101171.63
2022-09-30T08:02:26.922Z,101174.34
2022-09-30T08:04:53.528Z,101178.09
2022-09-30T08:07:20.173Z,101176.72
2022-09-30T08:09:47.298Z,101164.47
2022-09-30T08:12:13.924Z,101180.84
2022-09-30T08:14:40.696Z,101197.75
2022-09-30T08:17:08.228Z,101178.88
2022-09-30T08:19:35.351Z,101180.28
2022-09-30T08:24:29.605Z,101162.56
2022-09-30T08:26:57.703Z,101164.75
2022-09-30T08:29:49.889Z,101166.81
2022-09-30T08:32:11.300Z,101180.06
2022-09-30T08:34:37.924Z,101188.50
2022-09-30T08:37:10.231Z,101124.66
2022-09-30T08:39:39.197Z,101187.00
2022-09-30T08:42:39.024Z,101180.13
2022-09-30T08:45:20.200Z,101190.88
2022-09-30T08:50:56.984Z,101186.00
2022-09-30T08:53:30.585Z,101186.56
2022-09-30T08:56:02.569Z,101172.53
2022-09-30T08:58:33.654Z,101192.31
2022-09-30T09:01:23.951Z,101182.06
2022-09-30T09:03:50.830Z,101192.78
2022-09-30T09:06:40.087Z,101202.84
2022-09-30T09:09:34.390Z,101200.56
2022-09-30T09:12:31.145Z,101187.09
2022-09-30T09:15:15.479Z,101187.72
2022-09-30T09:18:22.721Z,101194.22
2022-09-30T09:20:59.845Z,101169.63
2022-09-30T09:23:30.141Z,101180.28
2022-09-30T09:25:56.947Z,101178.72
2022-09-30T09:28:49.210Z,101185.59
2022-09-30T09:31:20.066Z,101185.53
2022-09-30T09:33:47.296Z,101194.00
2022-09-30T09:36:35.362Z,101196.03
2022-09-30T09:39:23.190Z,101207.69
2022-09-30T09:42:05.304Z,101201.97
2022-09-30T09:44:57.345Z,101198.13
2022-09-30T09:47:24.406Z,101188.50
2022-09-30T09:49:58.169Z,101194.81
2022-09-30T09:52:41.174Z,101203.09
2022-09-30T09:55:09.657Z,101198.31
2022-09-30T09:57:36.351Z,101197.25
2022-09-30T10:00:28.966Z,101194.16
2022-09-30T10:03:06.033Z,101189.50
2022-09-30T10:05:40.346Z,101192.09
2022-09-30T10:08:23.289Z,101194.84
2022-09-30T10:10:54.442Z,101202.16
2022-09-30T10:13:25.481Z,101202.41
2022-09-30T10:15:55.713Z,101197.34
2022-09-30T10:18:36.908Z,101200.97
2022-09-30T10:21:24.275Z,101205.94
2022-09-30T10:23:54.089Z,101210.94
2022-09-30T10:26:24.760Z,101211.00
2022-09-30T10:28:55.452Z,101196.16
2022-09-30T10:31:44.032Z,101208.84
2022-09-30T10:34:28.482Z,101196.44
2022-09-30T10:36:57.439Z,101182.75
2022-09-30T10:39:39.500Z,101190.94
2022-09-30T10:42:26.394Z,101202.16
2022-09-30T10:44:57.452Z,101200.94
2022-09-30T10:47:32.703Z,101208.16
2022-09-30T10:50:16.254Z,101196.06
2022-09-30T10:53:18.362Z,101196.78
2022-09-30T10:55:56.325Z,101197.69
2022-09-30T11:01:35.544Z,101191.53
2022-09-30T11:04:07.910Z,101195.97
2022-09-30T11:06:39.807Z,101195.81
2022-09-30T11:09:14.427Z,101181.91
2022-09-30T11:11:55.546Z,101186.22
2022-09-30T11:14:51.087Z,101202.09
2022-09-30T11:17:31.432Z,101187.94
2022-09-30T11:20:00.970Z,101193.13
2022-09-30T11:22:45.328Z,101198.28
2022-09-30T11:25:27.617Z,101187.44
2022-09-30T11:28:03.671Z,101184.22
2022-09-30T11:30:57.649Z,101184.91
2022-09-30T11:33:26.899Z,101185.56
2022-09-30T11:36:01.169Z,101187.66
2022-09-30T11:38:40.061Z,101181.09
2022-09-30T11:41:15.824Z,101180.44
2022-09-30T11:44:06.730Z,101183.59
2022-09-30T11:46:48.352Z,101165.00
2022-09-30T11:49:25.104Z,101174.28
2022-09-30T11:52:14.187Z,101156.44
2022-09-30T11:55:19.759Z,101182.84
2022-09-30T11:57:46.374Z,101184.44
2022-09-30T12:00:16.656Z,101167.94
2022-09-30T12:03:07.981Z,101175.66
2022-09-30T12:05:44.357Z,101174.91
2022-09-30T12:08:32.645Z,101167.44
2022-09-30T12:11:08.453Z,101172.41
2022-09-30T12:13:53.677Z,101181.19
2022-09-30T12:16:24.671Z,101142.31
2022-09-30T12:18:56.607Z,101171.81
2022-09-30T12:21:33.819Z,101171.28
2022-09-30T12:24:14.104Z,101158.13
2022-09-30T12:26:41.616Z,101166.50
2022-09-30T12:29:55.897Z,101171.91
2022-09-30T12:32:40.636Z,101171.91
2022-09-30T12:35:22.325Z,101163.50
2022-09-30T12:38:23.369Z,101169.38
2022-09-30T12:41:35.884Z,101155.09
2022-09-30T12:44:23.771Z,101160.44
2022-09-30T12:47:15.079Z,101156.44
2022-09-30T12:49:43.410Z,101163.88
2022-09-30T12:52:16.206Z,101165.22
2022-09-30T12:54:56.689Z,101164.97
2022-09-30T12:57:31.101Z,101162.94
2022-09-30T13:00:25.667Z,101161.03
2022-09-30T13:02:59.659Z,101165.50
2022-09-30T13:05:32.188Z,101170.50
2022-09-30T13:08:04.891Z,101174.31
2022-09-30T13:10:34.180Z,101177.13
2022-09-30T13:13:23.937Z,101170.38
2022-09-30T13:15:52.464Z,101178.66
2022-09-30T13:18:22.083Z,101187.72
2022-09-30T13:21:08.823Z,101186.19
2022-09-30T13:23:38.301Z,101185.69
2022-09-30T13:26:42.238Z,101173.03
2022-09-30T13:29:14.820Z,101188.72
2022-09-30T13:31:50.701Z,101180.84
2022-09-30T13:34:26.512Z,101185.50
2022-09-30T13:36:53.139Z,101186.56
2022-09-30T13:39:36.489Z,101180.81
2022-09-30T13:42:15.486Z,101185.72
2022-09-30T13:45:04.251Z,101191.19
2022-09-30T13:47:37.958Z,101193.28
2022-09-30T13:50:19.495Z,101196.22
2022-09-30T13:52:51.274Z,101188.72
2022-09-30T13:55:29.043Z,101200.47
2022-09-30T13:57:55.953Z,101199.91
2022-09-30T14:00:26.630Z,101188.03
2022-09-30T14:03:06.466Z,101201.41
2022-09-30T14:05:52.241Z,101203.41
2022-09-30T14:08:33.941Z,101201.81
2022-09-30T14:11:00.452Z,101203.56
2022-09-30T14:13:53.756Z,101212.56
2022-09-30T14:16:52.692Z,101157.59
2022-09-30T14:19:28.575Z,101217.19
2022-09-30T14:21:59.150Z,101213.81
2022-09-30T14:24:28.034Z,101212.31
2022-09-30T14:27:00.477Z,101214.16
2022-09-30T14:29:39.287Z,101215.41
2022-09-30T14:32:20.333Z,101208.72
2022-09-30T14:34:48.684Z,101203.66
2022-09-30T14:37:28.503Z,101211.81
2022-09-30T14:39:56.037Z,101222.53
2022-09-30T14:42:30.088Z,101174.56
2022-09-30T14:45:04.551Z,101223.88
2022-09-30T14:47:38.756Z,101222.50
2022-09-30T14:50:16.739Z,101221.47
2022-09-30T14:52:46.181Z,101215.47
2022-09-30T14:55:35.554Z,101226.19
2022-09-30T14:58:23.416Z,101224.50
2022-09-30T15:01:12.288Z,101214.91
2022-09-30T15:03:45.377Z,101210.72
2022-09-30T15:06:21.046Z,101192.13
2022-09-30T15:08:50.376Z,101208.69
2022-09-30T15:11:22.327Z,101228.88
2022-09-30T15:13:53.244Z,101216.75
2022-09-30T15:16:28.587Z,101222.06
2022-09-30T15:18:55.758Z,101220.50
2022-09-30T15:21:24.518Z,101207.69
2022-09-30T15:23:54.858Z,101213.03
2022-09-30T15:26:24.344Z,101221.22
2022-09-30T15:28:51.613Z,101218.63
2022-09-30T15:31:24.624Z,101215.25
2022-09-30T15:34:05.294Z,101213.00
2022-09-30T15:36:32.305Z,101226.25
2022-09-30T15:38:59.252Z,101223.63
2022-09-30T15:41:26.567Z,101220.19
2022-09-30T15:43:54.123Z,101223.78
2022-09-30T15:46:34.028Z,101226.25
2022-09-30T15:49:03.438Z,101201.00
2022-09-30T15:51:41.517Z,101222.66
2022-09-30T15:54:35.644Z,101224.03
2022-09-30T15:57:15.628Z,101217.72
2022-09-30T16:00:06.243Z,101221.81
2022-09-30T16:02:32.888Z,101199.06
2022-09-30T16:05:05.425Z,101205.03
2022-09-30T16:07:32.691Z,101215.44
2022-09-30T16:09:59.870Z,101210.13
2022-09-30T16:12:35.627Z,101184.97
2022-09-30T16:15:14.405Z,101209.47
2022-09-30T16:17:47.254Z,101221.06
2022-09-30T16:20:13.942Z,101220.88
2022-09-30T16:22:40.517Z,101213.94
2022-09-30T16:25:20.756Z,101212.13
2022-09-30T16:27:48.591Z,101210.50
2022-09-30T16:30:18.066Z,101200.94
2022-09-30T16:32:51.457Z,101207.16
2022-09-30T16:35:21.210Z,101213.22
2022-09-30T16:37:48.860Z,101203.53
2022-09-30T16:40:24.613Z,101207.16
2022-09-30T16:42:54.975Z,101202.06
2022-09-30T16:45:22.567Z,101198.50
2022-09-30T16:47:50.644Z,101191.69
2022-09-30T16:50:22.543Z,101209.84
2022-09-30T16:52:49.480Z,101204.66
2022-09-30T16:57:47.987Z,101197.53
2022-09-30T17:00:18.093Z,101196.59
2022-09-30T17:02:46.637Z,101194.84
2022-09-30T17:05:22.004Z,101204.41
2022-09-30T17:07:53.789Z,101198.22
2022-09-30T17:10:25.745Z,101177.53
2022-09-30T17:12:53.576Z,101124.03
2022-09-30T17:15:20.787Z,101190.44
2022-09-30T17:17:48.359Z,101202.00
2022-09-30T17:20:15.170Z,101199.59
2022-09-30T17:22:41.818Z,101205.84
2022-09-30T17:25:09.903Z,101216.50
2022-09-30T17:27:36.879Z,101209.59
2022-09-30T17:30:05.203Z,101201.00
2022-09-30T17:32:31.815Z,101216.78
2022-09-30T17:34:58.472Z,101211.63
2022-09-30T17:37:27.103Z,101221.28
2022-09-30T17:39:53.973Z,101204.47
2022-09-30T17:42:39.233Z,101206.31
2022-09-30T17:45:06.267Z,101198.81
2022-09-30T17:47:33.026Z,101187.06
2022-09-30T17:49:59.828Z,101202.81
2022-09-30T17:52:26.547Z,101196.94
2022-09-30T17:54:53.286Z,101194.75
2022-09-30T17:57:21.191Z,101198.44
2022-09-30T17:59:47.842Z,101195.31
2022-09-30T18:02:17.447Z,101185.13
2022-09-30T18:04:44.535Z,101195.66
2022-09-30T18:07:11.300Z,101194.91
2022-09-30T18:09:39.210Z,101193.16
2022-09-30T18:12:07.510Z,101184.09
2022-09-30T18:14:38.483Z,101196.97
2022-09-30T18:17:06.491Z,101196.38
2022-09-30T18:19:33.272Z,101201.66
2022-09-30T18:21:59.939Z,101185.22
2022-09-30T18:24:45.443Z,101167.09
2022-09-30T18:27:12.267Z,101190.44
2022-09-30T18:29:38.873Z,101176.66
2022-09-30T18:32:06.435Z,101184.59
2022-09-30T18:34:35.857Z,101190.84
2022-09-30T18:37:06.828Z,101190.03
2022-09-30T18:39:41.501Z,101189.28
2022-09-30T18:42:08.052Z,101191.19
2022-09-30T18:44:37.612Z,101183.44
2022-09-30T18:47:05.178Z,101187.13
2022-09-30T18:49:32.121Z,101194.22
2022-09-30T18:51:58.698Z,101190.56
2022-09-30T18:54:25.295Z,101189.63
2022-09-30T18:56:51.863Z,101187.28
2022-09-30T18:59:21.886Z,101196.94
2022-09-30T19:01:50.685Z,101204.03
2022-09-30T19:04:17.370Z,101197.66
2022-09-30T19:06:45.007Z,101186.41
2022-09-30T19:09:12.361Z,101198.28
2022-09-30T19:11:43.147Z,101192.03
2022-09-30T19:14:14.537Z,101182.25
2022-09-30T19:16:42.097Z,101193.47
2022-09-30T19:19:12.744Z,101132.81
2022-09-30T19:21:40.383Z,101176.56
2022-09-30T19:24:08.937Z,101170.38
2022-09-30T19:26:38.730Z,101187.59
2022-09-30T19:29:08.501Z,101197.88
2022-09-30T19:31:37.004Z,101193.41
2022-09-30T19:34:04.353Z,101185.31
2022-09-30T19:36:42.284Z,101190.34
2022-09-30T19:39:12.485Z,101194.44
2022-09-30T19:41:40.426Z,101195.97
2022-09-30T19:44:07.441Z,101195.78
2022-09-30T19:46:34.036Z,101198.38
2022-09-30T19:49:00.740Z,101193.72
2022-09-30T19:51:30.955Z,101180.44
2022-09-30T19:54:06.210Z,101188.25
2022-09-30T19:56:36.469Z,101185.59
2022-09-30T19:59:04.070Z,101179.53
2022-09-30T20:01:31.336Z,101179.63
2022-09-30T20:04:00.484Z,101185.84
2022-09-30T20:06:28.186Z,101186.78
2022-09-30T20:09:04.410Z,101151.34
2022-09-30T20:11:34.185Z,101192.06
2022-09-30T20:14:21.595Z,101189.44
2022-09-30T20:16:48.607Z,101185.03
2022-09-30T20:19:16.426Z,101176.31
2022-09-30T20:21:43.793Z,101179.03
2022-09-30T20:24:12.619Z,101185.28
2022-09-30T20:26:44.000Z,101186.16
2022-09-30T20:29:11.602Z,101192.34
2022-09-30T20:31:41.431Z,101193.25
2022-09-30T20:34:12.355Z,101188.97
2022-09-30T20:36:40.362Z,101197.66
2022-09-30T20:39:08.023Z,101200.31
2022-09-30T20:41:37.522Z,101191.78
2022-09-30T20:44:11.925Z,101197.72
2022-09-30T20:46:40.531Z,101193.22
2022-09-30T20:49:07.255Z,101198.66
2022-09-30T20:51:34.302Z,101179.63
2022-09-30T20:54:01.183Z,101204.16
2022-09-30T20:56:39.298Z,101210.25
2022-09-30T20:59:17.252Z,101182.56
2022-09-30T21:01:44.106Z,101209.66
2022-09-30T21:04:10.901Z,101210.56
2022-09-30T21:06:37.543Z,101211.56
2022-09-30T21:09:05.601Z,101204.66
2022-09-30T21:11:32.971Z,101188.22
2022-09-30T21:14:00.837Z,101191.72
2022-09-30T21:16:27.733Z,101191.03
2022-09-30T21:18:54.419Z,101161.00
2022-09-30T21:21:23.270Z,101208.28
2022-09-30T21:23:55.550Z,101197.31
2022-09-30T21:26:23.385Z,101196.63
2022-09-30T21:28:51.767Z,101198.78
2022-09-30T21:31:25.112Z,101197.25
2022-09-30T21:33:53.706Z,101201.66
2022-09-30T21:36:21.356Z,101208.75
2022-09-30T21:38:49.532Z,101200.91
2022-09-30T21:41:16.952Z,101193.00
2022-09-30T21:43:46.243Z,101194.00
2022-09-30T21:46:15.014Z,101192.25
2022-09-30T21:48:42.580Z,101171.44
2022-09-30T21:51:10.181Z,101192.28
2022-09-30T21:53:38.960Z,101199.38
2022-09-30T21:56:07.661Z,101198.66
2022-09-30T21:58:34.302Z,101187.47
2022-09-30T22:01:04.157Z,101208.41
2022-09-30T22:03:36.124Z,101211.00
2022-09-30T22:06:05.851Z,101198.72
2022-09-30T22:08:36.680Z,101191.72
2022-09-30T22:11:06.895Z,101194.50
2022-09-30T22:13:34.207Z,101187.63
2022-09-30T22:16:06.224Z,101205.00
2022-09-30T22:18:33.842Z,101201.66
2022-09-30T22:21:09.189Z,101206.94
2022-09-30T22:23:36.092Z,101209.59
2022-09-30T22:26:23.731Z,101212.34
2022-09-30T22:28:56.250Z,101213.34
2022-09-30T22:31:26.162Z,101197.75
2022-09-30T22:34:14.025Z,101211.59
2022-09-30T22:37:00.647Z,101205.25
2022-09-30T22:39:27.116Z,101198.13
2022-09-30T22:41:55.960Z,101190.34
2022-09-30T22:44:25.687Z,101199.16
2022-09-30T22:46:53.487Z,101200.91
2022-09-30T22:49:20.795Z,101137.59
2022-09-30T22:51:52.008Z,101188.59
2022-09-30T22:54:18.912Z,101198.22
2022-09-30T22:56:45.939Z,101170.41
2022-09-30T22:59:12.620Z,101197.28
2022-09-30T23:01:39.217Z,101179.00
2022-09-30T23:04:06.305Z,101195.66
2022-09-30T23:06:32.994Z,101191.41
2022-09-30T23:08:59.556Z,101195.06
2022-09-30T23:11:26.120Z,101192.53
2022-09-30T23:13:58.216Z,101140.41
2022-09-30T23:16:25.843Z,101191.50
2022-09-30T23:18:52.724Z,101192.44
2022-09-30T23:21:22.070Z,101180.09
2022-09-30T23:23:48.818Z,101186.88
2022-09-30T23:26:29.136Z,101184.25
2022-09-30T23:29:07.436Z,101181.50
2022-09-30T23:31:34.744Z,101187.56
2022-09-30T23:34:03.737Z,101186.53
2022-09-30T23:36:32.378Z,101188.09
2022-09-30T23:39:15.863Z,101188.63
2022-09-30T23:41:44.806Z,101189.22
2022-09-30T23:44:11.355Z,101163.84
2022-09-30T23:46:37.991Z,101179.22
2022-09-30T23:49:04.623Z,101177.25
2022-09-30T23:51:33.501Z,101181.50
2022-09-30T23:54:02.856Z,101170.78
2022-09-30T23:56:29.470Z,101170.63
2022-09-30T23:58:56.111Z,101161.91
